Time;durP1;ratioP1;P1;durP2;ratioP2;P2;SDS_P1;SDS_P2;PMS_P1;PMS_P2;Temp;Humidity;BMP_temperature;BMP_pressure;BME280_temperature;BME280_humidity;BME280_pressure;Samples;Min_cycle;Max_cycle;Signal;HPM_P1;HPM_P2
2021/07/18 00:01:28;;;;;;;11.65;6.03;;;;;;;25.55;45.38;98537.22;5040570;28;20014;-70
2021/07/18 00:03:53;;;;;;;6.85;5.43;;;;;;;25.83;44.77;98529.69;5036077;28;20026;-76
2021/07/18 00:06:19;;;;;;;6.53;5.10;;;;;;;25.69;44.92;98533.84;5041381;28;20035;-76
2021/07/18 00:08:44;;;;;;;11.25;6.15;;;;;;;25.78;44.68;98536.81;5039764;28;20116;-76
2021/07/18 00:11:10;;;;;;;10.57;5.47;;;;;;;25.83;44.61;98523.97;5043402;28;20029;-76
2021/07/18 00:13:35;;;;;;;11.95;5.38;;;;;;;25.90;44.45;98528.66;5039891;28;20057;-70
2021/07/18 00:16:01;;;;;;;9.70;6.22;;;;;;;25.88;44.73;98526.22;5034008;28;20415;-77
2021/07/18 00:18:26;;;;;;;16.85;6.30;;;;;;;25.78;44.91;98528.22;5034307;28;20475;-70
2021/07/18 00:20:52;;;;;;;10.30;6.03;;;;;;;25.73;45.28;98530.88;5037277;28;20029;-77
2021/07/18 00:23:18;;;;;;;12.88;6.65;;;;;;;25.60;45.47;98530.88;5033578;28;20033;-77
2021/07/18 00:25:44;;;;;;;12.48;8.43;;;;;;;25.59;45.66;98530.09;5033819;28;20076;-76
2021/07/18 00:28:10;;;;;;;16.70;8.57;;;;;;;25.38;46.28;98526.66;5035319;28;20065;-76
2021/07/18 00:30:36;;;;;;;15.25;9.18;;;;;;;25.41;46.07;98521.28;5033706;28;20017;-69
2021/07/18 00:33:02;;;;;;;14.02;8.13;;;;;;;25.35;46.36;98526.78;5047080;28;20033;-69
2021/07/18 00:35:27;;;;;;;12.55;8.27;;;;;;;25.24;46.49;98533.66;5049029;28;20033;-70
2021/07/18 00:37:53;;;;;;;11.88;7.10;;;;;;;25.29;46.11;98531.50;5048843;28;20106;-70
2021/07/18 00:40:18;;;;;;;13.65;8.15;;;;;;;25.24;46.06;98527.94;5041365;28;20060;-69
2021/07/18 00:42:44;;;;;;;9.43;6.88;;;;;;;25.06;46.13;98530.59;5033637;28;20022;-70
2021/07/18 00:45:10;;;;;;;14.15;6.95;;;;;;;24.93;46.85;98542.00;5035188;28;21033;-76
2021/07/18 00:47:38;;;;;;;12.40;7.53;;;;;;;24.75;47.02;98537.63;5034135;28;20029;-69
2021/07/18 00:50:08;;;;;;;12.95;7.63;;;;;;;24.82;46.85;98536.63;5034785;28;20041;-76
2021/07/18 00:52:33;;;;;;;12.63;6.80;;;;;;;24.91;46.98;98539.59;5038533;28;20557;-75
2021/07/18 00:54:59;;;;;;;12.80;7.38;;;;;;;24.77;47.21;98552.28;5050373;28;20120;-76
2021/07/18 00:57:25;;;;;;;13.88;6.78;;;;;;;24.79;47.48;98541.19;5047998;28;20033;-77
2021/07/18 00:59:52;;;;;;;20.25;7.20;;;;;;;24.74;46.92;98544.59;5041813;28;20027;-70
2021/07/18 01:02:17;;;;;;;17.20;6.07;;;;;;;24.69;47.36;98548.00;5040412;28;20038;-76
2021/07/18 01:04:43;;;;;;;10.90;7.20;;;;;;;24.56;47.54;98545.13;5045023;28;20047;-77
2021/07/18 01:07:08;;;;;;;13.48;7.28;;;;;;;24.56;47.57;98541.47;5030702;28;20035;-70
2021/07/18 01:09:35;;;;;;;8.75;6.40;;;;;;;24.65;47.18;98538.75;5049173;28;20017;-70
2021/07/18 01:12:01;;;;;;;22.00;7.47;;;;;;;24.78;47.12;98539.59;5049727;28;20025;-75
2021/07/18 01:14:27;;;;;;;8.82;6.85;;;;;;;24.64;47.41;98548.59;5045492;28;20068;-69
2021/07/18 01:16:52;;;;;;;16.02;6.75;;;;;;;24.73;47.75;98542.97;5043687;28;20486;-77
2021/07/18 01:19:21;;;;;;;12.65;7.60;;;;;;;24.90;47.30;98542.94;5047280;28;20036;-76
2021/07/18 01:22:01;;;;;;;15.20;8.32;;;;;;;24.86;46.57;98540.16;5041549;28;20039;-76
2021/07/18 01:24:28;;;;;;;14.10;7.35;;;;;;;24.58;47.67;98538.94;5047750;28;20025;-69
2021/07/18 01:26:54;;;;;;;10.85;6.68;;;;;;;24.40;48.22;98537.44;5049588;28;20020;-70
2021/07/18 01:29:20;;;;;;;10.73;7.53;;;;;;;24.57;47.91;98538.16;5050933;28;20037;-70
2021/07/18 01:31:46;;;;;;;12.65;7.32;;;;;;;24.71;47.98;98539.00;5051019;28;20032;-70
2021/07/18 01:34:11;;;;;;;9.05;7.68;;;;;;;24.61;48.15;98541.72;5044567;28;20032;-69
2021/07/18 01:36:37;;;;;;;8.55;7.38;;;;;;;24.52;48.16;98542.38;5050737;28;20021;-77
2021/07/18 01:39:07;;;;;;;13.73;8.25;;;;;;;24.66;48.20;98549.72;5051151;28;20485;-69
2021/07/18 01:41:34;;;;;;;11.07;7.47;;;;;;;24.75;47.87;98548.25;5050548;28;20036;-77
2021/07/18 01:44:00;;;;;;;21.52;8.45;;;;;;;24.64;48.21;98548.59;5036758;28;20040;-70
2021/07/18 01:46:32;;;;;;;13.77;7.60;;;;;;;24.60;48.56;98547.88;5048185;28;20049;-70
2021/07/18 01:48:58;;;;;;;13.85;7.35;;;;;;;24.70;48.36;98543.88;5045881;28;20037;-69
2021/07/18 01:51:28;;;;;;;14.48;8.25;;;;;;;24.70;48.29;98545.97;5042599;28;20017;-69
2021/07/18 01:53:54;;;;;;;9.57;8.57;;;;;;;24.54;48.22;98548.44;5033377;28;20104;-70
2021/07/18 01:56:21;;;;;;;14.50;8.48;;;;;;;24.49;48.35;98543.28;5048350;28;20025;-77
2021/07/18 01:58:50;;;;;;;13.80;7.70;;;;;;;24.57;48.03;98535.31;5049408;28;20033;-77
2021/07/18 02:01:23;;;;;;;10.47;7.30;;;;;;;24.54;47.99;98539.06;5046540;28;20086;-77
2021/07/18 02:03:49;;;;;;;13.70;7.38;;;;;;;24.60;47.68;98542.97;5040461;28;20555;-69
2021/07/18 02:06:14;;;;;;;12.77;7.68;;;;;;;24.53;47.88;98543.16;5041646;28;20034;-70
2021/07/18 02:08:40;;;;;;;8.13;6.38;;;;;;;24.52;48.06;98550.16;5039898;28;20040;-69
2021/07/18 02:11:06;;;;;;;16.27;6.75;;;;;;;24.61;47.23;98547.44;5033964;28;20047;-77
2021/07/18 02:13:32;;;;;;;12.75;6.80;;;;;;;24.60;47.52;98542.16;5040877;28;20041;-69
2021/07/18 02:15:59;;;;;;;13.13;7.53;;;;;;;24.44;47.64;98543.06;5030953;28;20502;-69
2021/07/18 02:18:25;;;;;;;13.73;7.38;;;;;;;24.48;47.71;98543.75;5031438;28;20037;-69
2021/07/18 02:20:51;;;;;;;9.50;6.57;;;;;;;24.30;48.38;98547.91;5035972;28;20029;-77
2021/07/18 02:23:17;;;;;;;18.67;6.70;;;;;;;24.58;47.81;98541.81;5035726;28;20091;-70
2021/07/18 02:25:43;;;;;;;16.23;8.60;;;;;;;24.50;48.47;98549.81;5034788;28;20018;-77
2021/07/18 02:28:08;;;;;;;11.35;7.95;;;;;;;24.32;48.84;98553.19;5037859;28;20477;-70
2021/07/18 02:30:34;;;;;;;13.93;7.65;;;;;;;24.22;49.37;98552.22;5036150;28;20032;-77
2021/07/18 02:32:59;;;;;;;18.15;8.60;;;;;;;24.15;49.74;98550.38;5032158;28;20033;-77
2021/07/18 02:35:25;;;;;;;12.82;7.40;;;;;;;24.03;50.04;98559.66;5034388;28;20021;-77
2021/07/18 02:37:51;;;;;;;11.50;8.90;;;;;;;23.98;50.02;98553.22;5033446;28;20029;-77
2021/07/18 02:40:19;;;;;;;16.98;10.00;;;;;;;23.94;50.56;98551.72;5041685;28;20028;-70
2021/07/18 02:42:45;;;;;;;19.35;10.88;;;;;;;23.82;50.69;98551.19;5046298;28;20029;-69
2021/07/18 02:45:13;;;;;;;15.48;10.13;;;;;;;23.83;50.44;98564.25;5044718;28;20509;-77
2021/07/18 02:47:39;;;;;;;17.90;12.07;;;;;;;23.94;50.18;98561.09;5042293;28;20037;-77
2021/07/18 02:50:07;;;;;;;21.63;14.52;;;;;;;23.82;50.69;98562.63;5032346;28;20041;-77
2021/07/18 02:52:32;;;;;;;27.95;19.42;;;;;;;23.80;50.73;98565.13;5036629;28;20060;-69
2021/07/18 02:54:58;;;;;;;36.85;29.83;;;;;;;23.77;50.83;98571.75;5035547;28;20063;-69
2021/07/18 02:57:23;;;;;;;39.65;30.25;;;;;;;23.72;50.86;98571.47;5038125;28;20041;-70
2021/07/18 02:59:50;;;;;;;53.10;36.53;;;;;;;23.58;51.41;98572.63;5038340;28;20116;-70
2021/07/18 03:02:15;;;;;;;59.53;32.67;;;;;;;23.46;52.08;98569.25;5037296;28;20033;-69
2021/07/18 03:04:41;;;;;;;41.45;29.63;;;;;;;23.53;51.65;98573.97;5039821;28;20236;-77
2021/07/18 03:07:06;;;;;;;79.38;53.97;;;;;;;23.56;51.25;98575.94;5041326;28;20044;-77
2021/07/18 03:09:32;;;;;;;75.35;51.17;;;;;;;23.46;52.06;98574.94;5045987;28;20478;-69
2021/07/18 03:11:57;;;;;;;77.45;49.75;;;;;;;23.49;51.24;98568.38;5048197;28;20029;-77
2021/07/18 03:14:23;;;;;;;73.63;43.60;;;;;;;23.29;51.86;98577.03;5038681;28;20060;-77
2021/07/18 03:16:48;;;;;;;74.32;45.42;;;;;;;23.39;52.00;98573.06;5047201;28;20024;-77
2021/07/18 03:19:14;;;;;;;45.90;29.95;;;;;;;23.28;51.74;98578.22;5045083;28;20037;-70
2021/07/18 03:21:40;;;;;;;28.40;17.80;;;;;;;23.45;51.42;98583.97;5047266;28;20017;-69
2021/07/18 03:24:06;;;;;;;25.02;16.13;;;;;;;23.30;51.59;98583.50;5041615;28;20043;-69
2021/07/18 03:26:31;;;;;;;41.80;19.02;;;;;;;23.33;51.72;98580.56;5041381;28;20040;-69
2021/07/18 03:28:57;;;;;;;26.48;15.75;;;;;;;23.26;51.69;98589.25;5047122;28;20044;-77
2021/07/18 03:31:22;;;;;;;25.85;15.30;;;;;;;23.23;52.32;98590.16;5046341;28;20406;-69
2021/07/18 03:33:48;;;;;;;24.67;14.70;;;;;;;23.12;51.99;98591.22;5046767;28;20033;-70
2021/07/18 03:36:13;;;;;;;18.20;13.73;;;;;;;23.07;52.12;98594.59;5049696;28;20036;-77
2021/07/18 03:38:39;;;;;;;24.75;13.98;;;;;;;23.11;52.00;98600.22;5046474;28;20029;-70
2021/07/18 03:41:04;;;;;;;18.33;13.02;;;;;;;23.22;51.71;98599.97;5032588;28;20037;-77
2021/07/18 03:43:30;;;;;;;26.75;11.77;;;;;;;23.26;51.88;98601.50;5039020;28;20037;-69
2021/07/18 03:45:56;;;;;;;17.80;10.23;;;;;;;23.19;51.71;98595.16;5043029;28;20058;-77
2021/07/18 03:48:21;;;;;;;15.35;9.88;;;;;;;23.12;52.40;98596.91;5039138;28;20033;-69
2021/07/18 03:50:48;;;;;;;16.50;10.35;;;;;;;23.00;53.25;98603.28;5044667;28;20047;-77
2021/07/18 03:53:15;;;;;;;17.15;10.23;;;;;;;23.21;52.08;98607.69;5036497;28;20037;-76
2021/07/18 03:55:40;;;;;;;15.15;10.13;;;;;;;23.24;52.19;98609.69;5033672;28;20025;-76
2021/07/18 03:58:06;;;;;;;18.67;9.27;;;;;;;23.21;52.13;98607.69;5031977;28;20087;-76
2021/07/18 04:00:31;;;;;;;16.55;9.38;;;;;;;23.20;52.11;98596.75;5044551;28;20028;-73
2021/07/18 04:02:56;;;;;;;18.38;9.10;;;;;;;23.16;52.42;98608.25;5046585;28;20530;-73
2021/07/18 04:05:22;;;;;;;110.07;15.63;;;;;;;23.21;51.99;98610.56;5038070;28;20062;-72
2021/07/18 04:07:47;;;;;;;42.60;10.65;;;;;;;23.33;51.64;98614.81;5034840;28;20463;-69
2021/07/18 04:10:13;;;;;;;18.75;9.57;;;;;;;23.41;51.65;98616.25;5034414;28;20532;-74
2021/07/18 04:12:38;;;;;;;10.68;9.23;;;;;;;23.34;52.01;98613.56;5035690;28;20459;-72
2021/07/18 04:15:05;;;;;;;11.48;8.88;;;;;;;23.24;52.28;98615.41;5034168;28;20072;-69
2021/07/18 04:17:31;;;;;;;17.27;8.80;;;;;;;23.35;52.22;98620.88;5037574;28;20033;-70
2021/07/18 04:19:56;;;;;;;11.60;8.73;;;;;;;23.34;52.51;98619.25;5049189;28;20070;-70
2021/07/18 04:22:25;;;;;;;15.32;9.18;;;;;;;23.50;52.11;98623.38;5046515;28;20056;-70
2021/07/18 04:24:50;;;;;;;13.60;8.63;;;;;;;23.38;52.62;98625.69;5047404;28;20502;-67
2021/07/18 04:27:16;;;;;;;13.75;8.60;;;;;;;23.47;52.46;98624.28;5038347;28;20048;-67
2021/07/18 04:29:41;;;;;;;21.83;9.18;;;;;;;23.49;52.57;98621.78;5038600;28;20447;-67
2021/07/18 04:32:08;;;;;;;18.10;8.23;;;;;;;23.48;52.70;98628.72;5037184;28;20065;-65
2021/07/18 04:34:33;;;;;;;15.48;8.38;;;;;;;23.39;53.27;98627.28;5034545;28;20450;-68
2021/07/18 04:36:59;;;;;;;15.57;8.52;;;;;;;23.49;53.08;98631.16;5044952;28;20040;-64
2021/07/18 04:39:25;;;;;;;38.03;9.23;;;;;;;23.36;53.46;98628.19;5044756;28;20029;-64
2021/07/18 04:41:50;;;;;;;26.40;8.98;;;;;;;23.36;53.72;98624.53;5035428;28;20095;-64
2021/07/18 04:44:16;;;;;;;21.85;9.02;;;;;;;23.41;53.06;98626.84;5034942;28;20461;-64
2021/07/18 04:46:41;;;;;;;21.02;12.13;;;;;;;23.44;52.77;98625.94;5040201;28;20473;-67
2021/07/18 04:49:07;;;;;;;18.90;12.43;;;;;;;23.36;52.61;98619.63;5037422;28;20057;-67
2021/07/18 04:51:32;;;;;;;19.73;11.15;;;;;;;23.50;51.84;98626.22;5048082;28;20407;-65
2021/07/18 04:53:58;;;;;;;28.65;17.27;;;;;;;23.59;52.08;98626.41;5042250;28;20051;-65
2021/07/18 04:56:23;;;;;;;22.02;12.77;;;;;;;23.55;51.77;98622.88;5040907;28;20118;-65
2021/07/18 04:58:49;;;;;;;19.58;12.95;;;;;;;23.53;51.63;98626.16;5037093;28;20049;-67
2021/07/18 05:01:14;;;;;;;19.90;10.20;;;;;;;23.69;51.32;98628.22;5040372;28;20021;-64
2021/07/18 05:03:40;;;;;;;17.73;10.15;;;;;;;23.61;51.57;98621.06;5029079;28;20103;-67
2021/07/18 05:06:05;;;;;;;15.18;8.77;;;;;;;23.67;51.66;98621.34;5043470;28;20479;-67
2021/07/18 05:08:34;;;;;;;13.68;9.05;;;;;;;23.70;52.30;98620.44;5046295;28;20029;-67
2021/07/18 05:11:01;;;;;;;13.15;8.93;;;;;;;23.77;51.96;98622.31;5044486;28;20025;-67
2021/07/18 05:13:26;;;;;;;15.73;9.48;;;;;;;23.93;51.50;98618.66;5030351;28;20435;-64
2021/07/18 05:15:52;;;;;;;12.85;8.82;;;;;;;23.77;52.36;98628.84;5033370;28;20025;-64
2021/07/18 05:18:17;;;;;;;21.70;8.77;;;;;;;23.97;51.88;98631.59;5033608;28;20427;-65
2021/07/18 05:20:43;;;;;;;19.63;9.00;;;;;;;24.12;51.64;98636.94;5032888;28;20032;-67
2021/07/18 05:23:09;;;;;;;16.65;9.90;;;;;;;24.16;51.45;98634.00;5041942;28;20542;-65
2021/07/18 05:25:35;;;;;;;17.00;8.43;;;;;;;24.32;51.18;98630.31;5032865;28;20033;-66
2021/07/18 05:28:02;;;;;;;17.33;8.95;;;;;;;24.41;50.46;98630.47;5031550;28;20407;-67
2021/07/18 05:30:27;;;;;;;15.23;9.02;;;;;;;24.44;50.51;98635.28;5039963;28;20026;-66
2021/07/18 05:32:53;;;;;;;15.93;8.73;;;;;;;24.60;49.90;98634.44;5038990;28;20613;-65
2021/07/18 05:35:18;;;;;;;25.30;9.18;;;;;;;24.69;49.49;98636.63;5046881;28;20094;-67
2021/07/18 05:37:44;;;;;;;13.52;8.63;;;;;;;24.71;49.66;98628.41;5039839;28;20025;-66
2021/07/18 05:40:10;;;;;;;15.05;10.10;;;;;;;24.76;49.60;98641.34;5031413;28;20026;-67
2021/07/18 05:42:36;;;;;;;17.08;15.07;;;;;;;24.81;49.22;98641.63;5042931;28;20438;-64
2021/07/18 05:45:05;;;;;;;30.05;26.08;;;;;;;24.86;48.72;98643.13;5036174;28;20048;-67
2021/07/18 05:47:33;;;;;;;28.92;16.88;;;;;;;24.98;48.90;98637.88;5040964;28;20500;-65
2021/07/18 05:49:58;;;;;;;33.75;13.68;;;;;;;25.03;48.78;98635.25;5039474;28;20044;-64
2021/07/18 05:52:24;;;;;;;20.42;10.70;;;;;;;25.16;48.39;98637.34;5038721;28;20051;-66
2021/07/18 05:54:49;;;;;;;15.98;10.98;;;;;;;25.31;48.09;98635.63;5036587;28;20032;-66
2021/07/18 05:57:14;;;;;;;20.08;10.85;;;;;;;25.41;48.10;98630.03;5036570;28;20084;-66
2021/07/18 05:59:40;;;;;;;38.20;11.70;;;;;;;25.45;47.95;98625.78;5030784;28;20024;-64
2021/07/18 06:02:05;;;;;;;16.70;10.35;;;;;;;25.48;47.85;98621.22;5042045;28;20110;-65
2021/07/18 06:04:31;;;;;;;18.65;10.43;;;;;;;25.50;48.17;98628.09;5046078;28;20017;-64
2021/07/18 06:06:56;;;;;;;19.02;11.25;;;;;;;25.53;48.53;98620.66;5042368;28;20024;-64
2021/07/18 06:09:22;;;;;;;17.00;9.35;;;;;;;25.60;48.41;98623.31;5033391;28;20442;-66
2021/07/18 06:11:47;;;;;;;13.65;8.48;;;;;;;25.85;47.21;98624.53;5030337;28;20026;-65
2021/07/18 06:14:13;;;;;;;27.52;8.98;;;;;;;25.92;47.15;98623.50;5030251;28;20045;-66
2021/07/18 06:16:38;;;;;;;15.85;10.20;;;;;;;25.93;47.32;98616.50;5033330;28;20107;-66
2021/07/18 06:19:04;;;;;;;16.55;8.25;;;;;;;25.98;48.34;98607.31;5029248;28;20037;-66
2021/07/18 06:21:29;;;;;;;18.73;10.63;;;;;;;26.11;48.57;98607.28;5032394;28;20079;-66
2021/07/18 06:23:55;;;;;;;17.02;9.32;;;;;;;26.14;48.20;98605.56;5029292;28;20389;-67
2021/07/18 06:26:20;;;;;;;16.80;9.07;;;;;;;26.22;48.50;98604.06;5033227;28;20044;-64
2021/07/18 06:28:45;;;;;;;13.43;10.02;;;;;;;26.37;47.94;98607.22;5046638;28;20029;-64
2021/07/18 06:31:11;;;;;;;14.90;9.55;;;;;;;26.39;47.93;98609.63;5041066;28;20057;-66
2021/07/18 06:33:37;;;;;;;13.98;9.93;;;;;;;26.51;48.73;98605.09;5046382;28;20120;-65
2021/07/18 06:36:04;;;;;;;19.73;11.75;;;;;;;26.51;48.92;98599.34;5038523;28;20055;-67
2021/07/18 06:38:29;;;;;;;26.73;11.60;;;;;;;26.65;49.00;98598.03;5043201;28;20025;-67
2021/07/18 06:40:55;;;;;;;23.77;11.82;;;;;;;26.75;50.57;98591.88;5046128;28;20032;-66
2021/07/18 06:43:20;;;;;;;20.50;11.52;;;;;;;26.85;49.68;98600.53;5041218;28;20048;-66
2021/07/18 06:45:46;;;;;;;17.65;10.90;;;;;;;26.76;49.28;98598.44;5045840;28;20418;-70
2021/07/18 06:48:11;;;;;;;25.63;11.32;;;;;;;26.78;50.04;98590.94;5037553;28;20044;-71
2021/07/18 06:50:36;;;;;;;20.85;13.25;;;;;;;27.08;50.95;98595.59;5042678;28;20510;-71
2021/07/18 06:53:02;;;;;;;18.27;12.60;;;;;;;26.88;49.65;98593.91;5042289;28;20068;-71
2021/07/18 06:55:28;;;;;;;19.80;13.27;;;;;;;27.22;49.94;98586.44;5037877;28;20033;-70
2021/07/18 06:57:53;;;;;;;24.13;14.43;;;;;;;27.15;49.62;98583.81;5041196;28;20067;-67
2021/07/18 07:00:22;;;;;;;21.42;13.60;;;;;;;27.21;51.11;98584.81;5036118;28;20557;-70
2021/07/18 07:02:47;;;;;;;21.45;13.23;;;;;;;27.34;50.60;98573.25;5036221;28;20292;-68
2021/07/18 07:05:13;;;;;;;15.48;13.30;;;;;;;27.45;50.02;98570.75;5045787;28;20114;-66
2021/07/18 07:07:46;;;;;;;22.85;14.43;;;;;;;27.50;49.64;98562.78;5043026;28;20071;-70
2021/07/18 07:10:12;;;;;;;22.10;13.05;;;;;;;27.67;49.18;98572.72;5040579;28;20037;-70
2021/07/18 07:12:37;;;;;;;17.60;13.10;;;;;;;27.70;49.46;98570.97;5043292;28;20530;-72
2021/07/18 07:15:03;;;;;;;29.80;14.70;;;;;;;27.73;49.25;98565.09;5049145;28;20127;-72
2021/07/18 07:17:29;;;;;;;20.50;13.30;;;;;;;27.83;49.09;98560.16;5047126;28;20033;-71
2021/07/18 07:19:54;;;;;;;22.75;15.50;;;;;;;27.93;48.38;98560.94;5042200;28;20071;-66
2021/07/18 07:22:20;;;;;;;23.20;16.27;;;;;;;28.01;49.30;98555.72;5049627;28;20505;-67
2021/07/18 07:24:45;;;;;;;27.08;15.75;;;;;;;28.15;48.82;98552.22;5049066;28;20036;-69
2021/07/18 07:27:11;;;;;;;18.90;14.43;;;;;;;28.32;48.11;98554.78;5051221;28;20033;-70
2021/07/18 07:29:36;;;;;;;29.67;14.77;;;;;;;28.32;47.76;98562.63;5046287;28;20033;-66
2021/07/18 07:32:02;;;;;;;18.50;14.38;;;;;;;28.46;47.68;98561.97;5051888;28;20027;-70
2021/07/18 07:34:27;;;;;;;18.67;15.25;;;;;;;28.46;47.40;98556.22;5051961;28;20033;-71
2021/07/18 07:36:52;;;;;;;21.38;15.48;;;;;;;28.40;47.03;98553.19;5050455;28;20482;-70
2021/07/18 07:39:18;;;;;;;17.38;14.05;;;;;;;28.57;46.84;98562.25;5040511;28;20039;-67
2021/07/18 07:41:43;;;;;;;21.42;13.63;;;;;;;28.66;47.02;98555.69;5051491;28;20051;-67
2021/07/18 07:44:09;;;;;;;19.45;14.32;;;;;;;28.66;47.13;98555.69;5052524;28;20029;-67
2021/07/18 07:46:35;;;;;;;18.58;15.35;;;;;;;28.55;47.32;98550.44;5046957;28;20030;-71
2021/07/18 07:49:00;;;;;;;30.45;16.58;;;;;;;28.68;47.78;98553.13;5043516;28;20048;-70
2021/07/18 07:51:26;;;;;;;24.42;16.75;;;;;;;28.64;47.14;98549.63;5037947;28;20048;-71
2021/07/18 07:53:51;;;;;;;20.27;17.85;;;;;;;28.58;47.36;98548.66;5038915;28;20045;-67
2021/07/18 07:56:18;;;;;;;23.27;15.25;;;;;;;28.63;47.58;98542.28;5036854;28;20041;-70
2021/07/18 07:58:43;;;;;;;25.58;16.92;;;;;;;28.85;47.07;98542.09;5042785;28;20025;-70
2021/07/18 08:01:09;;;;;;;21.58;14.20;;;;;;;28.97;46.13;98537.44;5046423;28;20112;-70
2021/07/18 08:03:35;;;;;;;21.70;14.60;;;;;;;29.10;45.88;98533.53;5046909;28;20067;-70
2021/07/18 08:06:00;;;;;;;25.30;15.18;;;;;;;29.05;45.85;98537.06;5040901;28;20033;-67
2021/07/18 08:08:26;;;;;;;21.23;14.85;;;;;;;29.33;44.79;98531.22;5033088;28;20037;-69
2021/07/18 08:10:51;;;;;;;37.13;15.82;;;;;;;29.42;45.10;98536.88;5043847;28;20053;-75
2021/07/18 08:13:17;;;;;;;20.75;14.25;;;;;;;29.31;45.61;98531.69;5037144;28;20115;-68
2021/07/18 08:15:42;;;;;;;34.22;14.32;;;;;;;29.38;45.36;98536.28;5049192;28;20120;-75
2021/07/18 08:18:08;;;;;;;31.23;13.88;;;;;;;29.35;45.01;98529.41;5043086;28;20040;-70
2021/07/18 08:20:33;;;;;;;26.10;12.70;;;;;;;29.49;44.78;98527.13;5038508;28;20029;-75
2021/07/18 08:22:58;;;;;;;17.23;13.05;;;;;;;29.47;44.35;98524.75;5043300;28;20532;-70
2021/07/18 08:25:26;;;;;;;16.02;11.40;;;;;;;29.50;44.69;98528.72;5034143;28;20026;-67
2021/07/18 08:27:52;;;;;;;17.83;12.10;;;;;;;29.59;44.79;98510.59;5036275;28;20125;-68
2021/07/18 08:30:18;;;;;;;25.25;13.68;;;;;;;29.70;44.14;98510.84;5049818;28;20544;-68
2021/07/18 08:32:44;;;;;;;20.27;13.07;;;;;;;29.75;44.80;98515.91;5036978;28;20026;-68
2021/07/18 08:35:11;;;;;;;18.33;11.65;;;;;;;29.76;44.06;98511.75;5044137;28;20129;-71
2021/07/18 08:37:37;;;;;;;23.00;10.13;;;;;;;29.74;44.11;98505.69;5047617;28;20383;-70
2021/07/18 08:40:04;;;;;;;17.58;11.05;;;;;;;29.82;43.97;98504.03;5044757;28;20035;-68
2021/07/18 08:42:31;;;;;;;13.65;11.55;;;;;;;29.90;44.14;98500.75;5047963;28;20048;-67
2021/07/18 08:44:58;;;;;;;21.35;11.18;;;;;;;29.87;44.58;98488.16;5047807;28;20029;-68
2021/07/18 08:47:24;;;;;;;22.13;10.73;;;;;;;30.19;43.62;98493.50;5045666;28;20463;-68
2021/07/18 08:49:50;;;;;;;24.65;10.05;;;;;;;30.24;42.55;98492.81;5044739;28;20021;-71
2021/07/18 08:52:20;;;;;;;15.20;9.57;;;;;;;30.44;41.96;98495.00;5042779;28;20407;-71
2021/07/18 08:54:46;;;;;;;29.63;10.70;;;;;;;30.47;41.40;98493.22;5041740;28;20025;-75
2021/07/18 08:57:13;;;;;;;12.77;10.75;;;;;;;30.24;42.00;98492.81;5039416;28;20125;-73
2021/07/18 08:59:38;;;;;;;35.05;19.02;;;;;;;30.34;41.24;98487.75;5041373;28;20018;-74
2021/07/18 09:02:05;;;;;;;18.65;13.02;;;;;;;30.40;41.89;98497.31;5041825;28;20114;-71
2021/07/18 09:04:30;;;;;;;18.95;12.80;;;;;;;30.56;41.23;98490.25;5047204;28;20021;-74
2021/07/18 09:07:04;;;;;;;15.18;11.95;;;;;;;30.51;41.62;98494.63;5048068;28;20139;-72
2021/07/18 09:09:31;;;;;;;21.27;11.93;;;;;;;30.51;41.27;98482.28;5044275;28;20035;-69
2021/07/18 09:12:00;;;;;;;26.50;19.58;;;;;;;30.60;41.73;98476.41;5047671;28;20090;-70
2021/07/18 09:14:48;;;;;;;18.20;11.98;;;;;;;30.58;41.23;98475.31;5045284;28;20049;-70
2021/07/18 09:17:16;;;;;;;26.95;14.95;;;;;;;30.62;41.39;98473.81;5045364;28;20086;-71
2021/07/18 09:19:47;;;;;;;25.10;13.73;;;;;;;30.63;42.03;98474.63;5048031;28;20029;-72
2021/07/18 09:22:18;;;;;;;25.17;13.55;;;;;;;30.66;41.03;98460.03;5047592;28;20060;-72
2021/07/18 09:24:55;;;;;;;15.85;10.10;;;;;;;30.88;40.17;98461.69;5045328;28;20044;-75
2021/07/18 09:27:28;;;;;;;13.73;10.50;;;;;;;30.97;41.29;98463.69;5037261;28;20041;-71
2021/07/18 09:30:10;;;;;;;19.95;9.52;;;;;;;31.05;40.12;98456.16;5049018;28;20021;-73
2021/07/18 09:32:45;;;;;;;13.73;11.07;;;;;;;31.37;39.29;98464.25;5051026;28;20049;-70
2021/07/18 09:35:17;;;;;;;16.02;10.68;;;;;;;31.38;39.58;98457.22;5049382;28;20032;-74
2021/07/18 09:37:44;;;;;;;12.73;9.80;;;;;;;31.54;38.71;98452.16;5037351;28;20033;-72
2021/07/18 09:40:19;;;;;;;15.50;10.10;;;;;;;31.40;38.57;98463.28;5049990;28;20108;-73
2021/07/18 09:42:56;;;;;;;16.80;10.25;;;;;;;31.52;38.21;98447.69;5048848;28;20144;-74
2021/07/18 09:45:28;;;;;;;23.33;12.77;;;;;;;31.45;39.19;98450.22;5042068;28;20060;-70
2021/07/18 09:48:02;;;;;;;12.23;9.63;;;;;;;31.40;38.95;98454.59;5030340;28;20037;-70
2021/07/18 09:50:40;;;;;;;14.63;9.35;;;;;;;31.55;38.06;98460.31;5035011;28;20095;-70
2021/07/18 09:53:15;;;;;;;22.02;10.10;;;;;;;31.35;38.84;98453.22;5047168;28;20135;-70
2021/07/18 09:56:01;;;;;;;16.65;9.68;;;;;;;31.69;37.60;98441.31;5048452;28;20028;-70
2021/07/18 09:58:29;;;;;;;17.98;10.52;;;;;;;31.63;37.99;98437.56;5046253;28;20041;-70
2021/07/18 10:00:57;;;;;;;16.30;12.38;;;;;;;31.42;38.31;98434.69;5034894;28;20536;-70
2021/07/18 10:03:26;;;;;;;29.30;9.02;;;;;;;31.51;38.58;98431.66;5049069;28;20540;-70
2021/07/18 10:06:11;;;;;;;19.58;12.85;;;;;;;31.70;39.04;98430.56;5041709;28;20025;-70
2021/07/18 10:08:39;;;;;;;21.23;8.43;;;;;;;31.89;38.03;98428.19;5048090;28;20094;-70
2021/07/18 10:11:07;;;;;;;15.85;9.20;;;;;;;31.89;37.88;98431.06;5049209;28;20036;-70
2021/07/18 10:13:33;;;;;;;20.20;7.75;;;;;;;31.79;37.34;98434.09;5049820;28;20124;-70
2021/07/18 10:15:58;;;;;;;11.07;7.03;;;;;;;31.95;37.50;98426.13;5048569;28;20494;-70
2021/07/18 10:18:24;;;;;;;15.05;8.52;;;;;;;32.00;36.82;98424.59;5039734;28;20127;-70
2021/07/18 10:20:50;;;;;;;16.73;7.28;;;;;;;31.76;37.00;98434.28;5050212;28;20070;-71
2021/07/18 10:23:17;;;;;;;18.73;8.38;;;;;;;31.96;37.01;98424.81;5048769;28;20029;-70
2021/07/18 10:25:45;;;;;;;12.18;8.05;;;;;;;32.03;36.81;98420.69;5047714;28;20033;-70
2021/07/18 10:28:10;;;;;;;15.82;7.28;;;;;;;32.08;36.21;98411.28;5049687;28;20040;-70
2021/07/18 10:30:36;;;;;;;13.40;7.13;;;;;;;32.14;36.69;98417.13;5046109;28;20021;-71
2021/07/18 10:33:05;;;;;;;10.10;7.05;;;;;;;32.20;35.88;98420.84;5050058;28;20245;-70
2021/07/18 10:35:31;;;;;;;14.95;6.63;;;;;;;32.48;36.23;98418.25;5046224;28;20078;-70
2021/07/18 10:38:17;;;;;;;14.02;7.20;;;;;;;32.52;35.76;98417.22;5038989;28;20499;-70
2021/07/18 10:40:55;;;;;;;13.68;8.07;;;;;;;32.49;35.65;98401.69;5049604;28;20100;-71
2021/07/18 10:43:45;;;;;;;14.95;7.90;;;;;;;32.69;34.72;98395.00;5047655;28;20061;-74
2021/07/18 10:46:14;;;;;;;12.57;7.57;;;;;;;32.77;35.17;98396.13;5038029;28;20032;-74
2021/07/18 10:48:50;;;;;;;11.40;8.05;;;;;;;32.99;34.73;98385.25;5052359;28;20032;-74
2021/07/18 10:51:17;;;;;;;11.70;7.40;;;;;;;33.12;35.21;98391.38;5053827;28;20040;-74
2021/07/18 10:53:43;;;;;;;13.82;6.80;;;;;;;33.26;34.12;98385.91;5053943;28;20045;-74
2021/07/18 10:56:10;;;;;;;14.10;7.43;;;;;;;33.24;34.35;98383.50;5052256;28;20029;-74
2021/07/18 10:58:38;;;;;;;18.17;6.88;;;;;;;33.31;34.02;98383.03;5051570;28;20041;-74
2021/07/18 11:01:05;;;;;;;9.13;7.28;;;;;;;33.27;34.11;98370.91;5053643;28;20188;-74
2021/07/18 11:03:35;;;;;;;15.50;7.47;;;;;;;33.29;33.42;98376.16;5045257;28;20040;-74
2021/07/18 11:06:20;;;;;;;11.57;7.95;;;;;;;33.29;34.12;98367.47;5046178;28;20017;-68
2021/07/18 11:09:07;;;;;;;17.27;7.72;;;;;;;33.33;33.30;98368.03;5045731;28;20136;-70
2021/07/18 11:11:40;;;;;;;12.88;7.22;;;;;;;33.44;33.28;98355.69;5040530;28;20028;-71
2021/07/18 11:14:30;;;;;;;17.17;7.35;;;;;;;33.55;32.14;98366.56;5043779;28;20049;-70
2021/07/18 11:16:58;;;;;;;11.73;6.97;;;;;;;33.45;32.60;98363.91;5048334;28;20052;-76
2021/07/18 11:19:55;;;;;;;14.90;8.25;;;;;;;33.25;32.55;98366.94;5035606;28;20060;-76
2021/07/18 11:23:01;;;;;;;15.63;7.40;;;;;;;33.12;33.51;98359.50;5051074;28;20187;-69